sensor_id;sensor_type;location;lat;lon;timestamp;pressure;altitude;pressure_sealevel;temperature;humidity
11680;BME280;5896;42.686;23.142;2024-02-26T00:02:16;92668.22;;;5.75;89.09
11680;BME280;5896;42.686;23.142;2024-02-26T00:04:42;92668.44;;;5.67;89.49
11680;BME280;5896;42.686;23.142;2024-02-26T00:07:07;92665.88;;;5.67;90.11
11680;BME280;5896;42.686;23.142;2024-02-26T00:09:32;92656.22;;;5.69;89.89
11680;BME280;5896;42.686;23.142;2024-02-26T00:12:01;92668.25;;;5.69;89.67
11680;BME280;5896;42.686;23.142;2024-02-26T00:14:29;92662.34;;;5.61;88.87
11680;BME280;5896;42.686;23.142;2024-02-26T00:16:54;92659.97;;;5.73;90.27
11680;BME280;5896;42.686;23.142;2024-02-26T00:19:19;92650.13;;;5.70;89.42
11680;BME280;5896;42.686;23.142;2024-02-26T00:21:45;92654.66;;;5.61;89.39
11680;BME280;5896;42.686;23.142;2024-02-26T00:24:10;92658.59;;;5.71;90.34
11680;BME280;5896;42.686;23.142;2024-02-26T00:26:35;92654.63;;;5.68;90.34
11680;BME280;5896;42.686;23.142;2024-02-26T00:29:01;92641.06;;;5.61;90.47
11680;BME280;5896;42.686;23.142;2024-02-26T00:31:26;92652.88;;;5.75;90.10
11680;BME280;5896;42.686;23.142;2024-02-26T00:33:52;92649.13;;;5.78;89.87
11680;BME280;5896;42.686;23.142;2024-02-26T00:36:17;92650.31;;;5.82;89.95
11680;BME280;5896;42.686;23.142;2024-02-26T00:38:44;92659.97;;;5.80;89.65
11680;BME280;5896;42.686;23.142;2024-02-26T00:41:11;92658.00;;;5.89;90.00
11680;BME280;5896;42.686;23.142;2024-02-26T00:43:37;92653.66;;;5.89;89.44
11680;BME280;5896;42.686;23.142;2024-02-26T00:46:04;92649.16;;;5.91;90.05
11680;BME280;5896;42.686;23.142;2024-02-26T00:48:30;92649.94;;;5.92;89.31
11680;BME280;5896;42.686;23.142;2024-02-26T00:50:55;92641.25;;;5.86;89.69
11680;BME280;5896;42.686;23.142;2024-02-26T00:53:20;92643.22;;;5.91;89.97
11680;BME280;5896;42.686;23.142;2024-02-26T00:55:46;92637.94;;;5.92;89.57
11680;BME280;5896;42.686;23.142;2024-02-26T00:58:11;92636.34;;;5.98;90.01
11680;BME280;5896;42.686;23.142;2024-02-26T01:00:36;92638.13;;;5.97;89.73
11680;BME280;5896;42.686;23.142;2024-02-26T01:03:02;92639.69;;;5.98;89.96
11680;BME280;5896;42.686;23.142;2024-02-26T01:05:29;92636.13;;;5.86;90.06
11680;BME280;5896;42.686;23.142;2024-02-26T01:07:54;92632.81;;;5.92;89.31
11680;BME280;5896;42.686;23.142;2024-02-26T01:10:19;92632.22;;;6.03;89.33
11680;BME280;5896;42.686;23.142;2024-02-26T01:12:45;92629.66;;;5.97;89.30
11680;BME280;5896;42.686;23.142;2024-02-26T01:15:11;92633.59;;;5.99;89.86
11680;BME280;5896;42.686;23.142;2024-02-26T01:17:36;92632.81;;;5.92;89.99
11680;BME280;5896;42.686;23.142;2024-02-26T01:20:02;92625.53;;;5.96;90.37
11680;BME280;5896;42.686;23.142;2024-02-26T01:22:27;92623.75;;;5.96;89.89
11680;BME280;5896;42.686;23.142;2024-02-26T01:24:53;92624.75;;;5.95;90.02
11680;BME280;5896;42.686;23.142;2024-02-26T01:27:18;92618.03;;;5.94;89.91
11680;BME280;5896;42.686;23.142;2024-02-26T01:29:44;92611.91;;;6.08;89.68
11680;BME280;5896;42.686;23.142;2024-02-26T01:32:10;92615.63;;;6.19;89.43
11680;BME280;5896;42.686;23.142;2024-02-26T01:34:35;92614.63;;;6.14;89.21
11680;BME280;5896;42.686;23.142;2024-02-26T01:37:02;92619.19;;;6.12;89.18
11680;BME280;5896;42.686;23.142;2024-02-26T01:39:27;92609.72;;;6.12;88.89
11680;BME280;5896;42.686;23.142;2024-02-26T01:41:54;92609.72;;;6.19;88.74
11680;BME280;5896;42.686;23.142;2024-02-26T01:44:19;92612.28;;;6.25;89.19
11680;BME280;5896;42.686;23.142;2024-02-26T01:46:45;92609.91;;;6.17;88.24
11680;BME280;5896;42.686;23.142;2024-02-26T01:49:12;92618.03;;;5.88;89.21
11680;BME280;5896;42.686;23.142;2024-02-26T01:51:38;92620.78;;;5.73;90.00
11680;BME280;5896;42.686;23.142;2024-02-26T01:54:05;92619.97;;;5.79;90.21
11680;BME280;5896;42.686;23.142;2024-02-26T01:56:33;92621.56;;;5.80;90.04
11680;BME280;5896;42.686;23.142;2024-02-26T01:59:00;92618.41;;;5.71;90.29
11680;BME280;5896;42.686;23.142;2024-02-26T02:01:27;92617.44;;;5.92;88.99
11680;BME280;5896;42.686;23.142;2024-02-26T02:03:56;92618.81;;;6.01;88.92
11680;BME280;5896;42.686;23.142;2024-02-26T02:06:23;92615.28;;;6.02;89.35
11680;BME280;5896;42.686;23.142;2024-02-26T02:08:48;92615.84;;;5.98;88.98
11680;BME280;5896;42.686;23.142;2024-02-26T02:11:14;92608.16;;;5.98;88.82
11680;BME280;5896;42.686;23.142;2024-02-26T02:13:40;92608.38;;;5.96;89.25
11680;BME280;5896;42.686;23.142;2024-02-26T02:16:06;92610.56;;;5.93;89.48
11680;BME280;5896;42.686;23.142;2024-02-26T02:18:33;92608.94;;;5.92;89.58
11680;BME280;5896;42.686;23.142;2024-02-26T02:21:00;92609.53;;;5.87;89.60
11680;BME280;5896;42.686;23.142;2024-02-26T02:23:26;92610.53;;;5.73;90.15
11680;BME280;5896;42.686;23.142;2024-02-26T02:25:51;92608.16;;;5.71;90.22
11680;BME280;5896;42.686;23.142;2024-02-26T02:28:17;92598.88;;;5.90;89.14
11680;BME280;5896;42.686;23.142;2024-02-26T02:30:43;92603.63;;;5.86;89.20
11680;BME280;5896;42.686;23.142;2024-02-26T02:33:09;92592.81;;;5.84;89.48
11680;BME280;5896;42.686;23.142;2024-02-26T02:35:36;92597.09;;;5.91;89.25
11680;BME280;5896;42.686;23.142;2024-02-26T02:38:03;92597.91;;;5.91;88.74
11680;BME280;5896;42.686;23.142;2024-02-26T02:40:28;92591.63;;;5.94;88.61
11680;BME280;5896;42.686;23.142;2024-02-26T02:42:54;92606.19;;;6.06;88.93
11680;BME280;5896;42.686;23.142;2024-02-26T02:45:19;92607.00;;;6.07;88.87
11680;BME280;5896;42.686;23.142;2024-02-26T02:47:44;92609.72;;;6.12;88.39
11680;BME280;5896;42.686;23.142;2024-02-26T02:50:10;92617.81;;;6.16;88.79
11680;BME280;5896;42.686;23.142;2024-02-26T02:52:35;92609.72;;;6.19;88.92
11680;BME280;5896;42.686;23.142;2024-02-26T02:55:01;92616.81;;;6.23;88.86
11680;BME280;5896;42.686;23.142;2024-02-26T02:57:26;92613.03;;;6.32;88.28
11680;BME280;5896;42.686;23.142;2024-02-26T02:59:52;92620.72;;;6.32;87.77
11680;BME280;5896;42.686;23.142;2024-02-26T03:02:17;92611.06;;;6.34;87.99
11680;BME280;5896;42.686;23.142;2024-02-26T03:04:43;92610.06;;;6.36;87.96
11680;BME280;5896;42.686;23.142;2024-02-26T03:07:08;92610.47;;;6.32;88.18
11680;BME280;5896;42.686;23.142;2024-02-26T03:09:34;92608.72;;;6.26;88.90
11680;BME280;5896;42.686;23.142;2024-02-26T03:11:59;92616.81;;;6.23;89.08
11680;BME280;5896;42.686;23.142;2024-02-26T03:14:25;92611.28;;;6.26;89.04
11680;BME280;5896;42.686;23.142;2024-02-26T03:16:54;92613.84;;;6.26;88.99
11680;BME280;5896;42.686;23.142;2024-02-26T03:19:21;92607.16;;;6.25;89.00
11680;BME280;5896;42.686;23.142;2024-02-26T03:21:46;92617.59;;;6.24;89.22
11680;BME280;5896;42.686;23.142;2024-02-26T03:24:12;92618.78;;;6.21;89.38
11680;BME280;5896;42.686;23.142;2024-02-26T03:26:37;92608.34;;;6.23;89.35
11680;BME280;5896;42.686;23.142;2024-02-26T03:29:03;92590.78;;;6.26;89.35
11680;BME280;5896;42.686;23.142;2024-02-26T03:31:29;92595.91;;;6.26;88.75
11680;BME280;5896;42.686;23.142;2024-02-26T03:33:54;92600.81;;;6.28;89.10
11680;BME280;5896;42.686;23.142;2024-02-26T03:36:19;92593.94;;;6.22;89.01
11680;BME280;5896;42.686;23.142;2024-02-26T03:38:46;92588.81;;;6.22;89.04
11680;BME280;5896;42.686;23.142;2024-02-26T03:41:12;92597.09;;;6.24;89.10
11680;BME280;5896;42.686;23.142;2024-02-26T03:43:38;92596.31;;;6.23;89.38
11680;BME280;5896;42.686;23.142;2024-02-26T03:46:07;92594.72;;;6.22;88.81
11680;BME280;5896;42.686;23.142;2024-02-26T03:48:33;92584.47;;;6.22;89.15
11680;BME280;5896;42.686;23.142;2024-02-26T03:50:59;92582.09;;;6.21;88.87
11680;BME280;5896;42.686;23.142;2024-02-26T03:53:25;92575.63;;;6.18;89.49
11680;BME280;5896;42.686;23.142;2024-02-26T03:55:50;92567.53;;;6.21;89.21
11680;BME280;5896;42.686;23.142;2024-02-26T03:58:17;92579.16;;;6.24;89.31
11680;BME280;5896;42.686;23.142;2024-02-26T04:00:43;92579.34;;;6.22;88.86
11680;BME280;5896;42.686;23.142;2024-02-26T04:03:09;92573.06;;;6.18;89.02
11680;BME280;5896;42.686;23.142;2024-02-26T04:05:35;92570.69;;;6.17;88.80
11680;BME280;5896;42.686;23.142;2024-02-26T04:08:00;92574.84;;;6.18;88.78
11680;BME280;5896;42.686;23.142;2024-02-26T04:10:26;92582.53;;;6.11;88.47
11680;BME280;5896;42.686;23.142;2024-02-26T04:12:51;92577.44;;;6.04;89.38
11680;BME280;5896;42.686;23.142;2024-02-26T04:15:17;92571.53;;;6.04;88.97
11680;BME280;5896;42.686;23.142;2024-02-26T04:17:42;92576.25;;;6.07;89.17
11680;BME280;5896;42.686;23.142;2024-02-26T04:20:12;92577.44;;;6.04;89.08
11680;BME280;5896;42.686;23.142;2024-02-26T04:22:38;92576.03;;;6.02;88.92
11680;BME280;5896;42.686;23.142;2024-02-26T04:25:03;92565.63;;;5.97;88.45
11680;BME280;5896;42.686;23.142;2024-02-26T04:27:29;92570.72;;;6.03;88.90
11680;BME280;5896;42.686;23.142;2024-02-26T04:29:54;92574.06;;;6.04;88.62
11680;BME280;5896;42.686;23.142;2024-02-26T04:32:20;92572.91;;;6.00;88.82
11680;BME280;5896;42.686;23.142;2024-02-26T04:34:45;92571.13;;;6.00;88.80
11680;BME280;5896;42.686;23.142;2024-02-26T04:37:11;92578.03;;;6.00;88.24
11680;BME280;5896;42.686;23.142;2024-02-26T04:39:36;92576.06;;;5.95;89.15
11680;BME280;5896;42.686;23.142;2024-02-26T04:42:02;92569.38;;;5.88;88.93
11680;BME280;5896;42.686;23.142;2024-02-26T04:44:29;92577.63;;;5.90;88.60
11680;BME280;5896;42.686;23.142;2024-02-26T04:46:54;92576.06;;;5.89;88.99
11680;BME280;5896;42.686;23.142;2024-02-26T04:49:19;92570.31;;;5.86;89.20
11680;BME280;5896;42.686;23.142;2024-02-26T04:51:45;92585.53;;;5.95;89.22
11680;BME280;5896;42.686;23.142;2024-02-26T04:54:10;92574.69;;;5.93;89.03
11680;BME280;5896;42.686;23.142;2024-02-26T04:56:36;92581.75;;;5.91;88.57
11680;BME280;5896;42.686;23.142;2024-02-26T04:59:01;92587.69;;;5.91;88.98
11680;BME280;5896;42.686;23.142;2024-02-26T05:01:26;92584.34;;;5.97;89.42
11680;BME280;5896;42.686;23.142;2024-02-26T05:03:52;92592.00;;;6.04;88.25
11680;BME280;5896;42.686;23.142;2024-02-26T05:06:18;92593.97;;;6.08;87.66
11680;BME280;5896;42.686;23.142;2024-02-26T05:08:43;92600.09;;;6.07;88.62
11680;BME280;5896;42.686;23.142;2024-02-26T05:11:09;92600.88;;;5.88;88.47
11680;BME280;5896;42.686;23.142;2024-02-26T05:13:34;92599.91;;;5.96;88.46
11680;BME280;5896;42.686;23.142;2024-02-26T05:15:59;92605.22;;;5.94;88.48
11680;BME280;5896;42.686;23.142;2024-02-26T05:18:25;92617.22;;;6.07;87.77
11680;BME280;5896;42.686;23.142;2024-02-26T05:20:50;92608.78;;;6.06;87.97
11680;BME280;5896;42.686;23.142;2024-02-26T05:23:16;92619.97;;;6.05;88.77
11680;BME280;5896;42.686;23.142;2024-02-26T05:25:41;92625.13;;;5.99;88.56
11680;BME280;5896;42.686;23.142;2024-02-26T05:28:07;92621.75;;;5.98;89.24
11680;BME280;5896;42.686;23.142;2024-02-26T05:30:32;92632.59;;;6.00;89.67
11680;BME280;5896;42.686;23.142;2024-02-26T05:32:58;92629.66;;;6.03;88.59
11680;BME280;5896;42.686;23.142;2024-02-26T05:35:25;92627.66;;;6.12;88.66
11680;BME280;5896;42.686;23.142;2024-02-26T05:37:51;92623.50;;;6.24;88.43
11680;BME280;5896;42.686;23.142;2024-02-26T05:40:16;92615.22;;;6.22;87.82
11680;BME280;5896;42.686;23.142;2024-02-26T05:42:42;92630.63;;;6.22;87.83
11680;BME280;5896;42.686;23.142;2024-02-26T05:45:10;92630.22;;;6.19;88.13
11680;BME280;5896;42.686;23.142;2024-02-26T05:47:35;92635.53;;;6.24;88.71
11680;BME280;5896;42.686;23.142;2024-02-26T05:50:01;92637.31;;;6.23;88.93
11680;BME280;5896;42.686;23.142;2024-02-26T05:52:27;92638.88;;;6.24;89.00
11680;BME280;5896;42.686;23.142;2024-02-26T05:54:54;92643.78;;;6.32;89.04
11680;BME280;5896;42.686;23.142;2024-02-26T05:57:20;92643.00;;;6.39;88.39
11680;BME280;5896;42.686;23.142;2024-02-26T05:59:45;92639.25;;;6.34;88.81
11680;BME280;5896;42.686;23.142;2024-02-26T06:02:11;92649.50;;;6.41;88.53
11680;BME280;5896;42.686;23.142;2024-02-26T06:04:36;92644.31;;;6.54;87.92
11680;BME280;5896;42.686;23.142;2024-02-26T06:07:02;92642.75;;;6.60;87.63
11680;BME280;5896;42.686;23.142;2024-02-26T06:09:27;92648.25;;;6.64;87.61
11680;BME280;5896;42.686;23.142;2024-02-26T06:11:53;92638.78;;;6.64;87.58
11680;BME280;5896;42.686;23.142;2024-02-26T06:14:18;92641.34;;;6.64;88.19
11680;BME280;5896;42.686;23.142;2024-02-26T06:16:44;92643.50;;;6.67;87.22
11680;BME280;5896;42.686;23.142;2024-02-26T06:19:10;92647.41;;;6.76;87.38
11680;BME280;5896;42.686;23.142;2024-02-26T06:21:36;92646.63;;;6.76;87.65
11680;BME280;5896;42.686;23.142;2024-02-26T06:24:01;92647.56;;;6.81;87.38
11680;BME280;5896;42.686;23.142;2024-02-26T06:26:27;92650.91;;;6.89;86.74
11680;BME280;5896;42.686;23.142;2024-02-26T06:28:54;92652.06;;;6.93;86.91
11680;BME280;5896;42.686;23.142;2024-02-26T06:31:21;92651.53;;;6.84;86.72
11680;BME280;5896;42.686;23.142;2024-02-26T06:33:48;92650.09;;;6.95;88.17
11680;BME280;5896;42.686;23.142;2024-02-26T06:36:13;92650.50;;;6.92;87.58
11680;BME280;5896;42.686;23.142;2024-02-26T06:38:39;92654.72;;;7.18;87.01
11680;BME280;5896;42.686;23.142;2024-02-26T06:41:04;92651.47;;;7.36;85.38
11680;BME280;5896;42.686;23.142;2024-02-26T06:43:29;92654.75;;;7.49;84.74
11680;BME280;5896;42.686;23.142;2024-02-26T06:45:55;92650.56;;;7.55;84.04
11680;BME280;5896;42.686;23.142;2024-02-26T06:48:23;92644.66;;;7.54;85.09
11680;BME280;5896;42.686;23.142;2024-02-26T06:50:49;92648.81;;;7.49;85.63
11680;BME280;5896;42.686;23.142;2024-02-26T06:53:14;92652.47;;;7.35;87.82
11680;BME280;5896;42.686;23.142;2024-02-26T06:55:39;92653.66;;;7.64;86.89
11680;BME280;5896;42.686;23.142;2024-02-26T06:58:06;92657.25;;;7.88;84.90
11680;BME280;5896;42.686;23.142;2024-02-26T07:00:31;92651.78;;;8.02;84.29
11680;BME280;5896;42.686;23.142;2024-02-26T07:02:56;92658.34;;;8.23;83.88
11680;BME280;5896;42.686;23.142;2024-02-26T07:05:22;92640.06;;;8.32;81.78
11680;BME280;5896;42.686;23.142;2024-02-26T07:07:47;92657.19;;;8.44;81.73
11680;BME280;5896;42.686;23.142;2024-02-26T07:10:12;92653.41;;;8.47;82.03
11680;BME280;5896;42.686;23.142;2024-02-26T07:12:38;92658.81;;;8.39;80.62
11680;BME280;5896;42.686;23.142;2024-02-26T07:15:04;92651.66;;;8.41;82.47
11680;BME280;5896;42.686;23.142;2024-02-26T07:17:32;92664.69;;;8.46;82.65
11680;BME280;5896;42.686;23.142;2024-02-26T07:19:59;92656.25;;;8.39;82.35
11680;BME280;5896;42.686;23.142;2024-02-26T07:22:24;92659.50;;;8.27;82.31
11680;BME280;5896;42.686;23.142;2024-02-26T07:24:50;92650.56;;;8.30;82.54
11680;BME280;5896;42.686;23.142;2024-02-26T07:27:15;92656.25;;;8.39;82.07
11680;BME280;5896;42.686;23.142;2024-02-26T07:29:42;92665.38;;;8.35;82.13
11680;BME280;5896;42.686;23.142;2024-02-26T07:32:08;92672.63;;;8.19;81.79
11680;BME280;5896;42.686;23.142;2024-02-26T07:34:33;92663.25;;;8.25;82.04
11680;BME280;5896;42.686;23.142;2024-02-26T07:36:59;92668.94;;;8.09;82.54
11680;BME280;5896;42.686;23.142;2024-02-26T07:39:24;92669.34;;;8.31;81.20
11680;BME280;5896;42.686;23.142;2024-02-26T07:41:50;92672.41;;;7.96;81.55
11680;BME280;5896;42.686;23.142;2024-02-26T07:44:17;92663.16;;;8.13;81.10
11680;BME280;5896;42.686;23.142;2024-02-26T07:46:43;92668.28;;;8.45;80.66
11680;BME280;5896;42.686;23.142;2024-02-26T07:49:09;92663.94;;;8.64;79.49
11680;BME280;5896;42.686;23.142;2024-02-26T07:51:34;92651.91;;;8.76;79.53
11680;BME280;5896;42.686;23.142;2024-02-26T07:54:02;92659.41;;;8.59;79.64
11680;BME280;5896;42.686;23.142;2024-02-26T07:56:28;92661.00;;;8.60;81.07
11680;BME280;5896;42.686;23.142;2024-02-26T07:58:53;92662.84;;;8.90;80.16
11680;BME280;5896;42.686;23.142;2024-02-26T08:01:18;92659.28;;;8.91;77.95
11680;BME280;5896;42.686;23.142;2024-02-26T08:03:44;92661.69;;;9.04;78.41
11680;BME280;5896;42.686;23.142;2024-02-26T08:06:09;92666.69;;;8.99;77.95
11680;BME280;5896;42.686;23.142;2024-02-26T08:08:35;92656.88;;;9.08;78.23
11680;BME280;5896;42.686;23.142;2024-02-26T08:11:00;92661.59;;;9.11;76.50
11680;BME280;5896;42.686;23.142;2024-02-26T08:13:25;92656.03;;;8.40;80.40
11680;BME280;5896;42.686;23.142;2024-02-26T08:15:51;92660.97;;;8.97;78.82
11680;BME280;5896;42.686;23.142;2024-02-26T08:18:17;92660.66;;;9.05;77.03
11680;BME280;5896;42.686;23.142;2024-02-26T08:20:42;92657.97;;;9.00;77.02
11680;BME280;5896;42.686;23.142;2024-02-26T08:23:08;92648.72;;;9.29;76.54
11680;BME280;5896;42.686;23.142;2024-02-26T08:25:34;92657.88;;;9.25;74.89
11680;BME280;5896;42.686;23.142;2024-02-26T08:27:59;92655.09;;;9.38;75.63
11680;BME280;5896;42.686;23.142;2024-02-26T08:30:24;92661.38;;;9.12;76.98
11680;BME280;5896;42.686;23.142;2024-02-26T08:32:50;92656.19;;;9.00;78.04
11680;BME280;5896;42.686;23.142;2024-02-26T08:35:16;92656.09;;;9.25;77.80
11680;BME280;5896;42.686;23.142;2024-02-26T08:37:44;92667.41;;;9.06;76.91
11680;BME280;5896;42.686;23.142;2024-02-26T08:40:10;92663.06;;;9.37;74.54
11680;BME280;5896;42.686;23.142;2024-02-26T08:42:35;92659.34;;;9.02;78.39
11680;BME280;5896;42.686;23.142;2024-02-26T08:45:01;92666.47;;;9.19;77.92
11680;BME280;5896;42.686;23.142;2024-02-26T08:47:27;92661.94;;;9.33;76.26
11680;BME280;5896;42.686;23.142;2024-02-26T08:49:53;92652.72;;;9.25;76.48
11680;BME280;5896;42.686;23.142;2024-02-26T08:52:19;92666.81;;;9.22;76.50
11680;BME280;5896;42.686;23.142;2024-02-26T08:54:44;92653.97;;;9.34;76.58
11680;BME280;5896;42.686;23.142;2024-02-26T08:57:10;92655.81;;;9.45;75.08
11680;BME280;5896;42.686;23.142;2024-02-26T08:59:35;92662.06;;;9.38;76.36
11680;BME280;5896;42.686;23.142;2024-02-26T09:02:00;92657.72;;;9.50;75.54
11680;BME280;5896;42.686;23.142;2024-02-26T09:04:26;92658.41;;;9.57;74.47
11680;BME280;5896;42.686;23.142;2024-02-26T09:06:52;92660.19;;;9.98;74.01
11680;BME280;5896;42.686;23.142;2024-02-26T09:09:18;92659.94;;;9.77;73.81
11680;BME280;5896;42.686;23.142;2024-02-26T09:11:43;92643.63;;;10.06;73.56
11680;BME280;5896;42.686;23.142;2024-02-26T09:14:09;92644.66;;;10.29;72.68
11680;BME280;5896;42.686;23.142;2024-02-26T09:16:34;92647.09;;;10.12;71.93
11680;BME280;5896;42.686;23.142;2024-02-26T09:18:59;92645.66;;;10.51;71.95
11680;BME280;5896;42.686;23.142;2024-02-26T09:21:25;92649.47;;;10.37;71.91
11680;BME280;5896;42.686;23.142;2024-02-26T09:23:52;92644.66;;;10.52;70.42
11680;BME280;5896;42.686;23.142;2024-02-26T09:26:17;92647.69;;;10.49;71.36
11680;BME280;5896;42.686;23.142;2024-02-26T09:28:43;92644.53;;;10.70;69.93
11680;BME280;5896;42.686;23.142;2024-02-26T09:31:08;92634.78;;;11.01;69.55
11680;BME280;5896;42.686;23.142;2024-02-26T09:33:34;92640.81;;;11.18;68.29
11680;BME280;5896;42.686;23.142;2024-02-26T09:36:00;92639.03;;;11.19;68.39
11680;BME280;5896;42.686;23.142;2024-02-26T09:38:28;92626.44;;;11.23;68.39
11680;BME280;5896;42.686;23.142;2024-02-26T09:40:56;92636.34;;;11.42;66.88
11680;BME280;5896;42.686;23.142;2024-02-26T09:43:22;92636.53;;;11.24;68.47
11680;BME280;5896;42.686;23.142;2024-02-26T09:45:52;92629.09;;;11.56;68.26
11680;BME280;5896;42.686;23.142;2024-02-26T09:48:18;92631.25;;;11.48;66.42
11680;BME280;5896;42.686;23.142;2024-02-26T09:50:44;92632.06;;;11.48;68.38
11680;BME280;5896;42.686;23.142;2024-02-26T09:53:12;92635.13;;;11.62;66.79
11680;BME280;5896;42.686;23.142;2024-02-26T09:55:40;92632.13;;;11.53;67.82
11680;BME280;5896;42.686;23.142;2024-02-26T09:58:06;92632.41;;;11.40;66.15
11680;BME280;5896;42.686;23.142;2024-02-26T10:00:37;92640.13;;;11.23;66.87
11680;BME280;5896;42.686;23.142;2024-02-26T10:03:04;92636.34;;;10.74;68.63
11680;BME280;5896;42.686;23.142;2024-02-26T10:05:31;92627.19;;;10.94;67.67
11680;BME280;5896;42.686;23.142;2024-02-26T10:07:59;92622.88;;;11.12;66.67
11680;BME280;5896;42.686;23.142;2024-02-26T10:10:31;92627.66;;;10.91;68.41
11680;BME280;5896;42.686;23.142;2024-02-26T10:12:59;92620.78;;;10.97;67.51
11680;BME280;5896;42.686;23.142;2024-02-26T10:15:25;92615.91;;;11.41;66.29
11680;BME280;5896;42.686;23.142;2024-02-26T10:17:51;92614.50;;;11.50;65.78
11680;BME280;5896;42.686;23.142;2024-02-26T10:20:17;92616.72;;;11.58;64.67
11680;BME280;5896;42.686;23.142;2024-02-26T10:22:46;92617.97;;;11.56;64.97
11680;BME280;5896;42.686;23.142;2024-02-26T10:25:11;92611.38;;;11.48;64.99
11680;BME280;5896;42.686;23.142;2024-02-26T10:27:36;92607.91;;;11.42;67.68
11680;BME280;5896;42.686;23.142;2024-02-26T10:30:03;92608.22;;;11.29;67.66
11680;BME280;5896;42.686;23.142;2024-02-26T10:32:30;92597.50;;;11.54;66.93
11680;BME280;5896;42.686;23.142;2024-02-26T10:34:56;92606.56;;;11.85;66.26
11680;BME280;5896;42.686;23.142;2024-02-26T10:37:22;92604.88;;;11.91;64.71
11680;BME280;5896;42.686;23.142;2024-02-26T10:39:48;92601.09;;;11.99;64.27
11680;BME280;5896;42.686;23.142;2024-02-26T10:42:14;92596.78;;;12.04;64.64
11680;BME280;5896;42.686;23.142;2024-02-26T10:44:40;92590.63;;;11.77;64.74
11680;BME280;5896;42.686;23.142;2024-02-26T10:47:07;92592.97;;;11.90;64.77
11680;BME280;5896;42.686;23.142;2024-02-26T10:49:34;92589.72;;;12.16;62.96
11680;BME280;5896;42.686;23.142;2024-02-26T10:52:01;92589.94;;;12.32;62.57
11680;BME280;5896;42.686;23.142;2024-02-26T10:54:29;92578.75;;;12.48;63.10
11680;BME280;5896;42.686;23.142;2024-02-26T10:56:56;92575.63;;;12.46;61.88
11680;BME280;5896;42.686;23.142;2024-02-26T10:59:23;92573.25;;;12.61;62.89
11680;BME280;5896;42.686;23.142;2024-02-26T11:01:48;92568.47;;;12.14;62.41
11680;BME280;5896;42.686;23.142;2024-02-26T11:04:16;92565.56;;;12.50;63.29
11680;BME280;5896;42.686;23.142;2024-02-26T11:06:43;92570.81;;;12.55;62.93
11680;BME280;5896;42.686;23.142;2024-02-26T11:09:11;92569.38;;;12.64;59.60
11680;BME280;5896;42.686;23.142;2024-02-26T11:11:38;92565.22;;;13.07;58.99
11680;BME280;5896;42.686;23.142;2024-02-26T11:14:06;92571.97;;;12.86;59.81
11680;BME280;5896;42.686;23.142;2024-02-26T11:16:34;92580.38;;;11.48;63.30
11680;BME280;5896;42.686;23.142;2024-02-26T11:19:00;92579.91;;;11.68;64.79
11680;BME280;5896;42.686;23.142;2024-02-26T11:21:27;92581.69;;;12.35;61.96
11680;BME280;5896;42.686;23.142;2024-02-26T11:23:56;92575.84;;;12.61;60.25
11680;BME280;5896;42.686;23.142;2024-02-26T11:26:23;92567.81;;;12.85;57.23
11680;BME280;5896;42.686;23.142;2024-02-26T11:28:49;92570.19;;;13.13;58.20
11680;BME280;5896;42.686;23.142;2024-02-26T11:31:16;92567.81;;;12.85;57.21
11680;BME280;5896;42.686;23.142;2024-02-26T11:33:43;92563.63;;;13.06;55.47
11680;BME280;5896;42.686;23.142;2024-02-26T11:36:09;92573.16;;;13.22;56.27
11680;BME280;5896;42.686;23.142;2024-02-26T11:38:35;92571.06;;;12.97;54.97
11680;BME280;5896;42.686;23.142;2024-02-26T11:41:01;92564.47;;;13.33;54.32
11680;BME280;5896;42.686;23.142;2024-02-26T11:43:52;92549.16;;;13.10;54.48
11680;BME280;5896;42.686;23.142;2024-02-26T11:46:31;92554.00;;;13.01;54.83
11680;BME280;5896;42.686;23.142;2024-02-26T11:49:29;92547.22;;;13.22;57.07
11680;BME280;5896;42.686;23.142;2024-02-26T11:51:53;92544.34;;;13.46;54.61
11680;BME280;5896;42.686;23.142;2024-02-26T11:54:53;92550.59;;;13.23;52.84
11680;BME280;5896;42.686;23.142;2024-02-26T11:57:26;92547.47;;;13.48;55.51
11680;BME280;5896;42.686;23.142;2024-02-26T11:59:53;92555.94;;;13.11;54.85
11680;BME280;5896;42.686;23.142;2024-02-26T12:02:46;92559.91;;;13.78;53.40
11680;BME280;5896;42.686;23.142;2024-02-26T12:05:14;92544.88;;;13.80;53.55
11680;BME280;5896;42.686;23.142;2024-02-26T12:07:45;92550.19;;;13.63;54.09
11680;BME280;5896;42.686;23.142;2024-02-26T12:10:15;92555.25;;;13.80;52.54
11680;BME280;5896;42.686;23.142;2024-02-26T12:12:42;92557.28;;;14.10;53.54
11680;BME280;5896;42.686;23.142;2024-02-26T12:15:08;92551.97;;;13.57;54.20
11680;BME280;5896;42.686;23.142;2024-02-26T12:17:34;92562.53;;;14.20;52.75
11680;BME280;5896;42.686;23.142;2024-02-26T12:20:10;92558.06;;;14.05;53.65
11680;BME280;5896;42.686;23.142;2024-02-26T12:22:38;92552.91;;;13.78;51.76
11680;BME280;5896;42.686;23.142;2024-02-26T12:25:05;92548.78;;;13.82;51.35
11680;BME280;5896;42.686;23.142;2024-02-26T12:27:31;92549.03;;;13.81;52.64
11680;BME280;5896;42.686;23.142;2024-02-26T12:29:56;92562.03;;;13.86;53.56
11680;BME280;5896;42.686;23.142;2024-02-26T12:32:23;92559.22;;;13.87;51.74
11680;BME280;5896;42.686;23.142;2024-02-26T12:34:49;92567.25;;;13.54;52.57
11680;BME280;5896;42.686;23.142;2024-02-26T12:37:15;92556.44;;;13.67;53.82
11680;BME280;5896;42.686;23.142;2024-02-26T12:39:41;92561.63;;;13.67;53.15
11680;BME280;5896;42.686;23.142;2024-02-26T12:42:07;92558.47;;;13.92;54.33
11680;BME280;5896;42.686;23.142;2024-02-26T12:44:32;92554.78;;;14.25;50.79
11680;BME280;5896;42.686;23.142;2024-02-26T12:47:02;92551.16;;;14.26;52.20
11680;BME280;5896;42.686;23.142;2024-02-26T12:49:30;92552.13;;;14.57;51.19
11680;BME280;5896;42.686;23.142;2024-02-26T12:51:56;92548.47;;;14.53;51.04
11680;BME280;5896;42.686;23.142;2024-02-26T12:54:30;92547.81;;;14.31;51.23
11680;BME280;5896;42.686;23.142;2024-02-26T12:57:00;92551.09;;;14.16;50.97
11680;BME280;5896;42.686;23.142;2024-02-26T12:59:28;92542.56;;;14.21;52.03
11680;BME280;5896;42.686;23.142;2024-02-26T13:01:54;92542.78;;;14.14;50.89
11680;BME280;5896;42.686;23.142;2024-02-26T13:04:20;92552.19;;;14.25;51.77